Westchester, IL (60154)

5:08 PM CDT en Octubre 31, 2014 (GMT -0500)
Mr. Hammes's Weather | Change Station
CLOSE
Current Station
Estación meteorológica personal
Location: Westchester, IL
Altura: 641 ft
Estaciones meteorológicas cercanas

Alt 641 ft 41.85 °N, 87.87 °W | Updated 20 seconds ago

Nublado
Nublado
38.8 ° F
Sensación térmica 33 ° F
N
8.1
Viento Variable Viento desde NE
Gusts 8.1 mph

Hoy
Alta -- | Baja -- ° F
--% Posibilidad de precipitaciones
Ayer
Alta -- | Baja -- ° F
Precip. -- pul
7:22 AM 5:46 PM
Cuarto creciente, 59% visible
Presión 30.27 pul
Visibilidad 4.0 Millas
Nubes Muy nublado 1700 ft
Muy nublado 2800 ft
Nublado 3300 ft
Vientos helados 33 ° F
Punto de rocío 14 ° F
Humedad 35%
Precipitaciones 0.00 pul
Espesor de la nieve No disponible.
UV 0 de una escala de 12
Polen .60 de una escala de 12
Calidad del aire No disponible.
Flu Activity No disponible.
METAR KMDW 312153Z 35019G29KT 4SM -RASN BKN017 BKN028 OVC033 02/M01 A3025 RMK AO2 PK WND 34040/2115 RAB41 SLP251 P0001 T00221011

More Conditions Fewer Conditions

Presión 30.27 pul
Visibilidad 4.0 Millas
Nubes Muy nublado 1700 ft
Muy nublado 2800 ft
Nublado 3300 ft
Vientos helados 33 ° F
Punto de rocío 14 ° F
Humedad 35%
Precipitaciones 0.00 pul
Espesor de la nieve No disponible.
UV 0 de una escala de 12
Polen .60 de una escala de 12
Calidad del aire No disponible.
Flu Activity No disponible.
METAR KMDW 312153Z 35019G29KT 4SM -RASN BKN017 BKN028 OVC033 02/M01 A3025 RMK AO2 PK WND 34040/2115 RAB41 SLP251 P0001 T00221011

More Conditions Fewer Conditions

10-Day Weather Forecast

Almanac

Astronomía

Oct. 31, 2014 Salida Puesta
Hora real
Crepúsculo civil
Crepúsculo náutico
Crepúsculo astronómico
Luna
Horas de luz
Horas de luz
Tomorrow will be .
, % of the Moon is Illuminated

Extremos de hoy

Máximos del estado Bajos del estado

Community

WunderPhotos

Upload Photos

1,766,751 ¡fotos cargadas!

WunderBlogs® & News

Nearby

Calidad del aire

  Calidad del aire Índice AQ Contaminante
Not available.

Grosos de nieve

Estación Profundido Altura

Actividad de terremotos

Ciudad Distance Mag. Tiempo y dato
Magnitud mínima muestra es 2,5.

Temperaturas de aguas costeras

Lugar Temperatura

Estaciones meteorológicas cercanas